createdAt,value
2023-01-09T00:01:55.804Z,77.43
2023-01-09T00:04:26.090Z,77.01
2023-01-09T00:06:56.678Z,76.50
2023-01-09T00:09:27.884Z,75.91
2023-01-09T00:11:58.203Z,75.87
2023-01-09T00:14:31.136Z,75.78
2023-01-09T00:17:01.478Z,76.19
2023-01-09T00:19:31.902Z,76.40
2023-01-09T00:22:02.279Z,76.09
2023-01-09T00:24:32.693Z,75.88
2023-01-09T00:27:03.138Z,75.96
2023-01-09T00:29:36.172Z,76.21
2023-01-09T00:32:10.167Z,76.22
2023-01-09T00:34:43.056Z,75.72
2023-01-09T00:37:14.468Z,75.53
2023-01-09T00:39:46.125Z,74.83
2023-01-09T00:42:22.247Z,74.53
2023-01-09T00:45:00.376Z,74.33
2023-01-09T00:47:36.549Z,74.42
2023-01-09T00:50:13.182Z,74.25
2023-01-09T00:52:44.385Z,73.96
2023-01-09T00:55:16.023Z,73.93
2023-01-09T00:57:46.447Z,73.61
2023-01-09T01:00:21.177Z,73.42
2023-01-09T01:02:51.473Z,73.14
2023-01-09T01:05:34.289Z,72.68
2023-01-09T01:08:04.603Z,71.49
2023-01-09T01:10:34.866Z,70.73
2023-01-09T01:13:06.388Z,70.49
2023-01-09T01:15:41.775Z,69.65
2023-01-09T01:18:12.823Z,69.61
2023-01-09T01:20:43.456Z,69.67
2023-01-09T01:23:13.928Z,69.53
2023-01-09T01:25:45.608Z,70.29
2023-01-09T01:28:16.005Z,70.34
2023-01-09T01:30:48.995Z,71.95
2023-01-09T01:33:19.339Z,73.73
2023-01-09T01:35:49.608Z,75.08
2023-01-09T01:38:19.976Z,77.39
2023-01-09T01:40:56.451Z,79.66
2023-01-09T01:43:26.954Z,83.01
2023-01-09T01:45:59.950Z,84.66
2023-01-09T01:48:33.434Z,84.68
2023-01-09T01:51:07.403Z,88.60
2023-01-09T01:53:41.592Z,92.39
2023-01-09T01:56:18.758Z,95.12
2023-01-09T01:58:51.978Z,97.03
2023-01-09T02:01:27.338Z,97.36
2023-01-09T02:04:00.866Z,99.80
2023-01-09T02:06:32.761Z,100.00
2023-01-09T02:09:03.842Z,100.00
2023-01-09T02:11:34.142Z,100.00
2023-01-09T02:14:05.733Z,100.00
2023-01-09T02:16:48.944Z,100.00
2023-01-09T02:19:53.712Z,100.00
2023-01-09T02:22:39.521Z,100.00
2023-01-09T02:25:51.450Z,100.00
2023-01-09T02:28:54.580Z,100.00
2023-01-09T02:31:36.478Z,100.00
2023-01-09T02:34:18.164Z,100.00
2023-01-09T02:36:57.769Z,100.00
2023-01-09T02:39:36.864Z,100.00
2023-01-09T02:42:14.299Z,100.00
2023-01-09T02:44:45.197Z,100.00
2023-01-09T02:47:44.118Z,100.00
2023-01-09T02:50:20.707Z,100.00
2023-01-09T02:53:28.079Z,100.00
2023-01-09T02:56:34.799Z,100.00
2023-01-09T02:59:28.928Z,100.00
2023-01-09T03:02:16.349Z,100.00
2023-01-09T03:05:02.961Z,100.00
2023-01-09T03:07:40.889Z,100.00
2023-01-09T03:10:19.041Z,100.00
2023-01-09T03:12:54.429Z,99.09
2023-01-09T03:15:29.416Z,99.34
2023-01-09T03:18:01.558Z,97.71
2023-01-09T03:20:35.839Z,97.28
2023-01-09T03:23:09.230Z,98.44
2023-01-09T03:25:39.624Z,98.28
2023-01-09T03:28:20.780Z,98.54
2023-01-09T03:30:51.201Z,99.54
2023-01-09T03:33:21.552Z,100.00
2023-01-09T03:35:54.884Z,100.00
2023-01-09T03:38:25.195Z,100.00
2023-01-09T03:40:55.513Z,99.09
2023-01-09T03:43:25.820Z,98.58
2023-01-09T03:45:56.174Z,98.50
2023-01-09T03:48:26.484Z,98.98
2023-01-09T03:51:00.125Z,98.47
2023-01-09T03:53:31.881Z,98.28
2023-01-09T03:56:02.225Z,97.69
2023-01-09T03:58:32.495Z,97.73
2023-01-09T04:01:05.087Z,97.60
2023-01-09T04:03:35.569Z,97.28
2023-01-09T04:06:09.885Z,98.62
2023-01-09T04:08:40.149Z,96.63
2023-01-09T04:11:10.472Z,96.27
2023-01-09T04:13:40.852Z,97.07
2023-01-09T04:16:11.589Z,96.68
2023-01-09T04:18:42.015Z,96.16
2023-01-09T04:21:14.992Z,95.93
2023-01-09T04:23:45.586Z,95.54
2023-01-09T04:26:15.979Z,95.21
2023-01-09T04:28:46.263Z,95.16
2023-01-09T04:31:16.893Z,94.94
2023-01-09T04:33:47.260Z,94.75
2023-01-09T04:36:20.139Z,94.61
2023-01-09T04:38:50.776Z,94.21
2023-01-09T04:41:33.296Z,93.78
2023-01-09T04:44:03.566Z,93.65
2023-01-09T04:46:33.827Z,92.64
2023-01-09T04:49:04.115Z,93.58
2023-01-09T04:51:36.993Z,93.47
2023-01-09T04:54:08.342Z,93.53
2023-01-09T04:56:39.080Z,93.34
2023-01-09T04:59:10.285Z,93.29
2023-01-09T05:01:40.693Z,93.09
2023-01-09T05:04:11.337Z,93.86
2023-01-09T05:06:44.317Z,93.52
2023-01-09T05:09:14.702Z,93.76
2023-01-09T05:11:45.087Z,93.17
2023-01-09T05:14:15.678Z,93.67
2023-01-09T05:16:46.079Z,93.88
2023-01-09T05:19:16.485Z,93.29
2023-01-09T05:21:49.427Z,93.42
2023-01-09T05:24:19.719Z,93.29
2023-01-09T05:26:50.015Z,92.82
2023-01-09T05:29:20.331Z,93.36
2023-01-09T05:31:52.867Z,93.72
2023-01-09T05:34:23.327Z,93.62
2023-01-09T05:36:56.367Z,93.76
2023-01-09T05:39:26.982Z,92.59
2023-01-09T05:41:57.407Z,92.47
2023-01-09T05:44:27.797Z,91.71
2023-01-09T05:46:58.219Z,91.39
2023-01-09T05:49:28.674Z,92.15
2023-01-09T05:52:01.644Z,92.53
2023-01-09T05:54:32.032Z,92.51
2023-01-09T05:57:02.456Z,92.30
2023-01-09T05:59:32.816Z,91.50
2023-01-09T06:02:03.449Z,91.19
2023-01-09T06:04:33.986Z,91.19
2023-01-09T06:07:07.091Z,90.96
2023-01-09T06:09:37.409Z,91.13
2023-01-09T06:12:08.309Z,91.08
2023-01-09T06:14:38.773Z,91.17
2023-01-09T06:17:10.214Z,90.93
2023-01-09T06:19:40.534Z,90.59
2023-01-09T06:22:13.444Z,90.39
2023-01-09T06:24:43.757Z,89.88
2023-01-09T06:27:14.556Z,89.77
2023-01-09T06:29:45.158Z,89.71
2023-01-09T06:32:15.616Z,89.35
2023-01-09T06:34:45.945Z,89.54
2023-01-09T06:37:18.848Z,89.28
2023-01-09T06:39:49.138Z,89.10
2023-01-09T06:42:19.480Z,89.35
2023-01-09T06:44:49.783Z,90.01
2023-01-09T06:47:20.153Z,90.28
2023-01-09T06:49:50.564Z,90.53
2023-01-09T06:52:23.431Z,90.80
2023-01-09T06:54:53.704Z,91.01
2023-01-09T06:57:24.036Z,91.11
2023-01-09T06:59:54.336Z,91.38
2023-01-09T07:02:25.608Z,91.53
2023-01-09T07:04:55.725Z,91.82
2023-01-09T07:07:28.694Z,92.44
2023-01-09T07:09:58.994Z,92.77
2023-01-09T07:12:29.262Z,92.96
2023-01-09T07:14:59.603Z,92.58
2023-01-09T07:17:30.087Z,92.76
2023-01-09T07:20:00.737Z,92.40
2023-01-09T07:22:33.730Z,92.30
2023-01-09T07:25:04.017Z,92.64
2023-01-09T07:27:34.369Z,92.17
2023-01-09T07:30:05.049Z,91.14
2023-01-09T07:32:35.711Z,91.77
2023-01-09T07:35:06.120Z,92.18
2023-01-09T07:37:39.120Z,92.45
2023-01-09T07:40:11.939Z,92.41
2023-01-09T07:42:42.438Z,92.82
2023-01-09T07:45:14.445Z,92.76
2023-01-09T07:47:44.979Z,93.15
2023-01-09T07:50:15.497Z,93.09
2023-01-09T07:52:50.359Z,93.15
2023-01-09T07:55:20.727Z,93.29
2023-01-09T07:57:52.948Z,93.06
2023-01-09T08:00:24.350Z,93.09
2023-01-09T08:02:55.843Z,92.62
2023-01-09T08:05:26.370Z,92.19
2023-01-09T08:07:59.377Z,92.33
2023-01-09T08:10:29.701Z,92.02
2023-01-09T08:12:59.987Z,92.22
2023-01-09T08:15:30.946Z,92.39
2023-01-09T08:18:01.705Z,92.38
2023-01-09T08:20:32.069Z,92.87
2023-01-09T08:23:05.101Z,92.86
2023-01-09T08:25:35.401Z,92.75
2023-01-09T08:28:05.674Z,93.29
2023-01-09T08:30:35.976Z,93.37
2023-01-09T08:33:06.447Z,92.70
2023-01-09T08:35:37.231Z,92.85
2023-01-09T08:38:10.183Z,92.66
2023-01-09T08:40:41.034Z,92.77
2023-01-09T08:43:25.098Z,93.15
2023-01-09T08:46:07.772Z,93.04
2023-01-09T08:48:38.821Z,94.01
2023-01-09T08:51:09.521Z,94.75
2023-01-09T08:53:42.574Z,94.54
2023-01-09T08:56:13.072Z,93.26
2023-01-09T08:58:45.300Z,93.24
2023-01-09T09:01:15.635Z,93.85
2023-01-09T09:03:46.523Z,94.19
2023-01-09T09:06:16.969Z,93.43
2023-01-09T09:08:51.413Z,93.47
2023-01-09T09:11:21.746Z,93.67
2023-01-09T09:13:52.120Z,93.11
2023-01-09T09:16:22.565Z,92.44
2023-01-09T09:18:53.032Z,92.56
2023-01-09T09:21:23.397Z,92.50
2023-01-09T09:23:58.088Z,92.26
2023-01-09T09:26:28.445Z,92.08
2023-01-09T09:28:59.193Z,90.84
2023-01-09T09:31:29.680Z,90.45
2023-01-09T09:34:00.248Z,90.07
2023-01-09T09:36:32.310Z,89.78
2023-01-09T09:39:07.451Z,90.21
2023-01-09T09:42:20.037Z,91.03
2023-01-09T09:45:13.414Z,91.52
2023-01-09T09:47:55.621Z,92.12
2023-01-09T09:51:15.599Z,93.65
2023-01-09T09:53:52.052Z,94.57
2023-01-09T09:56:27.020Z,95.85
2023-01-09T09:59:04.328Z,95.96
2023-01-09T10:01:44.005Z,97.45
2023-01-09T10:04:20.045Z,98.96
2023-01-09T10:06:54.902Z,99.76
2023-01-09T10:09:40.045Z,98.75
2023-01-09T10:12:30.551Z,98.43
2023-01-09T10:15:03.081Z,98.85
2023-01-09T10:17:56.235Z,99.07
2023-01-09T10:21:00.014Z,98.94
2023-01-09T10:24:12.886Z,98.44
2023-01-09T10:26:49.645Z,97.07
2023-01-09T10:29:53.260Z,96.67
2023-01-09T10:32:37.273Z,96.21
2023-01-09T10:35:54.384Z,92.92
2023-01-09T10:38:30.295Z,92.70
2023-01-09T10:41:06.297Z,91.38
2023-01-09T10:43:45.402Z,89.02
2023-01-09T10:46:25.258Z,87.70
2023-01-09T10:49:02.949Z,86.71
2023-01-09T10:51:40.368Z,83.37
2023-01-09T10:54:18.550Z,80.53
2023-01-09T10:57:00.532Z,81.13
2023-01-09T10:59:31.230Z,81.05
2023-01-09T11:02:06.206Z,82.39
2023-01-09T11:04:40.868Z,80.94
2023-01-09T11:07:21.949Z,80.32
2023-01-09T11:10:04.138Z,80.32
2023-01-09T11:12:36.380Z,80.85
2023-01-09T11:15:29.547Z,80.68
2023-01-09T11:18:27.346Z,81.80
2023-01-09T11:20:57.722Z,82.63
2023-01-09T11:23:34.543Z,83.34
2023-01-09T11:26:05.679Z,84.43
2023-01-09T11:28:35.708Z,83.60
2023-01-09T11:31:06.464Z,82.28
2023-01-09T11:33:43.827Z,81.70
2023-01-09T11:36:19.240Z,78.67
2023-01-09T11:38:53.382Z,77.29
2023-01-09T11:41:31.699Z,75.39
2023-01-09T11:44:03.809Z,73.73
2023-01-09T11:46:39.652Z,72.61
2023-01-09T11:49:27.717Z,73.56
2023-01-09T11:52:21.066Z,74.18
2023-01-09T11:54:56.485Z,76.04
2023-01-09T11:57:27.905Z,73.41
2023-01-09T12:00:04.676Z,65.79
2023-01-09T12:03:02.800Z,57.64
2023-01-09T12:05:48.237Z,55.32
2023-01-09T12:08:38.978Z,59.66
2023-01-09T12:11:31.897Z,62.61
2023-01-09T12:14:45.507Z,66.08
2023-01-09T12:17:59.337Z,66.81
2023-01-09T12:20:47.772Z,66.45
2023-01-09T12:23:44.177Z,65.38
2023-01-09T12:26:22.560Z,66.49
2023-01-09T12:29:13.608Z,65.30
2023-01-09T12:32:01.869Z,65.29
2023-01-09T12:35:01.069Z,65.42
2023-01-09T12:38:02.625Z,62.81
2023-01-09T12:41:10.499Z,63.72
2023-01-09T12:43:49.049Z,65.16
2023-01-09T12:46:22.878Z,65.44
2023-01-09T12:49:25.203Z,66.40
2023-01-09T12:52:04.675Z,67.00
2023-01-09T12:54:46.024Z,67.13
2023-01-09T12:57:24.786Z,68.21
2023-01-09T13:00:00.570Z,68.07
2023-01-09T13:02:37.650Z,68.75
2023-01-09T13:05:18.703Z,70.03
2023-01-09T13:07:54.156Z,71.20
2023-01-09T13:10:33.684Z,71.04
2023-01-09T13:13:13.591Z,71.69
2023-01-09T13:15:48.971Z,71.44
2023-01-09T13:18:30.705Z,70.81
2023-01-09T13:21:01.372Z,71.25
2023-01-09T13:23:38.804Z,72.31
2023-01-09T13:26:17.976Z,71.12
2023-01-09T13:28:53.960Z,71.28
2023-01-09T13:32:07.741Z,70.22
2023-01-09T13:34:40.140Z,69.94
2023-01-09T13:37:26.365Z,69.56
2023-01-09T13:40:01.794Z,70.04
2023-01-09T13:42:39.903Z,69.81
2023-01-09T13:45:25.636Z,69.75
2023-01-09T13:48:32.137Z,70.13
2023-01-09T13:52:00.024Z,70.29
2023-01-09T13:55:28.848Z,70.09
2023-01-09T13:58:32.600Z,69.82
2023-01-09T14:01:06.147Z,70.26
2023-01-09T14:03:39.437Z,70.90
2023-01-09T14:06:20.418Z,72.18
2023-01-09T14:09:22.561Z,72.83
2023-01-09T14:12:06.808Z,73.29
2023-01-09T14:14:43.558Z,74.51
2023-01-09T14:17:20.822Z,74.43
2023-01-09T14:19:59.568Z,74.71
2023-01-09T14:22:42.360Z,75.56
2023-01-09T14:25:27.880Z,75.93
2023-01-09T14:28:20.951Z,75.86
2023-01-09T14:31:13.101Z,76.60
2023-01-09T14:33:43.382Z,75.83
2023-01-09T14:36:19.633Z,75.96
2023-01-09T14:38:52.485Z,76.51
2023-01-09T14:41:40.334Z,76.29
2023-01-09T14:44:27.198Z,76.06
2023-01-09T14:47:06.707Z,75.43
2023-01-09T14:49:44.999Z,76.65
2023-01-09T14:52:25.097Z,76.70
2023-01-09T14:55:00.387Z,76.82
2023-01-09T14:57:34.155Z,76.63
2023-01-09T15:00:09.549Z,77.13
2023-01-09T15:02:44.061Z,77.38
2023-01-09T15:05:18.306Z,77.75
2023-01-09T15:07:56.519Z,77.91
2023-01-09T15:10:31.892Z,78.01
2023-01-09T15:13:05.278Z,78.21
2023-01-09T15:15:35.601Z,78.52
2023-01-09T15:18:11.801Z,78.54
2023-01-09T15:20:42.165Z,79.05
2023-01-09T15:23:25.858Z,79.72
2023-01-09T15:25:56.620Z,79.95
2023-01-09T15:28:32.200Z,80.18
2023-01-09T15:31:12.786Z,81.41
2023-01-09T15:33:48.312Z,81.87
2023-01-09T15:36:23.967Z,81.60
2023-01-09T15:38:55.854Z,82.32
2023-01-09T15:41:42.072Z,82.90
2023-01-09T15:44:18.960Z,82.79
2023-01-09T15:46:51.928Z,82.91
2023-01-09T15:49:24.963Z,82.67
2023-01-09T15:51:56.387Z,82.84
2023-01-09T15:54:32.787Z,82.84
2023-01-09T15:57:35.736Z,82.95
2023-01-09T16:00:45.583Z,82.83
2023-01-09T16:03:24.155Z,82.95
2023-01-09T16:06:05.599Z,82.48
2023-01-09T16:08:40.014Z,81.93
2023-01-09T16:11:19.783Z,82.12
2023-01-09T16:13:50.511Z,82.81
2023-01-09T16:16:31.121Z,82.08
2023-01-09T16:19:02.222Z,81.75
2023-01-09T16:21:40.184Z,81.62
2023-01-09T16:24:28.973Z,81.39
2023-01-09T16:27:26.158Z,81.45
2023-01-09T16:29:58.754Z,81.87
2023-01-09T16:32:32.734Z,82.00
2023-01-09T16:35:06.194Z,82.70
2023-01-09T16:37:39.463Z,83.38
2023-01-09T16:40:27.663Z,83.14
2023-01-09T16:43:00.925Z,83.63
2023-01-09T16:45:35.597Z,84.27
2023-01-09T16:48:14.492Z,84.46
2023-01-09T16:50:45.506Z,84.19
2023-01-09T16:53:22.252Z,83.47
2023-01-09T16:55:53.433Z,82.64
2023-01-09T16:58:28.299Z,82.18
2023-01-09T17:00:59.110Z,81.98
2023-01-09T17:03:29.784Z,82.29
2023-01-09T17:06:03.766Z,81.83
2023-01-09T17:08:38.977Z,81.89
2023-01-09T17:11:09.447Z,82.04
2023-01-09T17:13:39.897Z,81.86
2023-01-09T17:16:13.741Z,82.59
2023-01-09T17:18:44.445Z,83.03
2023-01-09T17:21:21.882Z,82.95
2023-01-09T17:24:14.867Z,83.66
2023-01-09T17:27:00.994Z,83.67
2023-01-09T17:29:32.378Z,84.00
2023-01-09T17:32:02.792Z,83.96
2023-01-09T17:34:34.465Z,83.80
2023-01-09T17:37:04.944Z,83.60
2023-01-09T17:39:38.004Z,83.33
2023-01-09T17:42:08.430Z,83.90
2023-01-09T17:44:38.888Z,84.44
2023-01-09T17:47:09.846Z,84.79
2023-01-09T17:49:41.890Z,84.47
2023-01-09T17:52:12.258Z,84.77
2023-01-09T17:54:45.205Z,83.64
2023-01-09T17:57:18.980Z,84.04
2023-01-09T17:59:49.272Z,83.75
2023-01-09T18:02:21.822Z,83.09
2023-01-09T18:04:52.201Z,82.53
2023-01-09T18:07:22.553Z,82.36
2023-01-09T18:09:55.536Z,82.39
2023-01-09T18:12:25.978Z,82.54
2023-01-09T18:14:57.169Z,82.48
2023-01-09T18:17:27.190Z,81.97
2023-01-09T18:20:00.236Z,81.94
2023-01-09T18:22:30.566Z,81.85
2023-01-09T18:25:03.575Z,81.58
2023-01-09T18:27:35.055Z,81.49
2023-01-09T18:30:05.755Z,81.09
2023-01-09T18:32:36.621Z,81.55
2023-01-09T18:35:08.965Z,81.41
2023-01-09T18:37:39.579Z,81.13
2023-01-09T18:40:14.665Z,81.72
2023-01-09T18:42:46.311Z,81.37
2023-01-09T18:45:16.653Z,81.78
2023-01-09T18:47:46.924Z,82.12
2023-01-09T18:50:17.389Z,82.81
2023-01-09T18:52:50.903Z,83.03
2023-01-09T18:55:24.720Z,83.45
2023-01-09T18:57:55.197Z,82.97
2023-01-09T19:00:25.765Z,83.36
2023-01-09T19:02:56.173Z,83.75
2023-01-09T19:05:27.675Z,83.81
2023-01-09T19:07:57.982Z,84.02
2023-01-09T19:10:30.875Z,84.24
2023-01-09T19:13:01.221Z,84.19
2023-01-09T19:15:31.529Z,84.67
2023-01-09T19:18:01.793Z,85.02
2023-01-09T19:20:32.079Z,85.34
2023-01-09T19:23:02.465Z,85.88
2023-01-09T19:25:35.400Z,86.18
2023-01-09T19:28:05.973Z,85.90
2023-01-09T19:30:37.502Z,85.99
2023-01-09T19:33:08.129Z,86.02
2023-01-09T19:35:38.528Z,86.37
2023-01-09T19:38:09.103Z,86.90
2023-01-09T19:40:42.121Z,87.03
2023-01-09T19:43:25.832Z,86.91
2023-01-09T19:45:57.032Z,86.40
2023-01-09T19:48:29.037Z,86.46
2023-01-09T19:51:04.263Z,85.76
2023-01-09T19:53:35.375Z,85.50
2023-01-09T19:56:19.462Z,85.43
2023-01-09T19:58:52.991Z,85.61
2023-01-09T20:01:26.401Z,85.43
2023-01-09T20:04:02.925Z,85.00
2023-01-09T20:06:34.363Z,84.77
2023-01-09T20:09:07.793Z,85.09
2023-01-09T20:11:42.267Z,85.08
2023-01-09T20:14:15.119Z,84.63
2023-01-09T20:16:47.650Z,85.19
2023-01-09T20:19:19.122Z,85.01
2023-01-09T20:21:51.066Z,84.83
2023-01-09T20:24:21.301Z,84.95
2023-01-09T20:26:54.296Z,84.60
2023-01-09T20:29:24.905Z,84.99
2023-01-09T20:31:56.121Z,84.27
2023-01-09T20:34:26.469Z,84.20
2023-01-09T20:36:57.473Z,83.74
2023-01-09T20:39:27.796Z,83.83
2023-01-09T20:42:00.705Z,84.09
2023-01-09T20:44:30.964Z,84.68
2023-01-09T20:47:01.238Z,84.37
2023-01-09T20:49:31.584Z,84.88
2023-01-09T20:52:01.905Z,85.11
2023-01-09T20:54:32.890Z,84.78
2023-01-09T20:57:05.903Z,84.81
2023-01-09T20:59:36.266Z,84.71
2023-01-09T21:02:06.879Z,84.78
2023-01-09T21:04:37.245Z,84.63
2023-01-09T21:07:09.378Z,84.70
2023-01-09T21:09:39.804Z,84.75
2023-01-09T21:12:27.164Z,84.50
2023-01-09T21:15:02.079Z,84.02
2023-01-09T21:17:33.324Z,83.73
2023-01-09T21:20:03.865Z,83.67
2023-01-09T21:22:36.710Z,83.97
2023-01-09T21:25:08.878Z,83.86
2023-01-09T21:27:45.979Z,83.68
2023-01-09T21:30:16.824Z,83.52
2023-01-09T21:32:47.179Z,83.34
2023-01-09T21:35:17.572Z,83.34
2023-01-09T21:37:47.891Z,83.39
2023-01-09T21:40:19.371Z,83.14
2023-01-09T21:43:04.671Z,84.71
2023-01-09T21:45:47.383Z,85.14
2023-01-09T21:48:17.664Z,84.97
2023-01-09T21:50:48.006Z,85.41
2023-01-09T21:53:18.540Z,84.53
2023-01-09T21:55:48.872Z,84.25
2023-01-09T21:58:21.871Z,84.33
2023-01-09T22:00:52.252Z,84.81
2023-01-09T22:03:22.661Z,84.90
2023-01-09T22:05:52.981Z,84.95
2023-01-09T22:08:23.338Z,84.83
2023-01-09T22:11:01.402Z,85.12
2023-01-09T22:13:34.476Z,85.94
2023-01-09T22:16:11.122Z,86.21
2023-01-09T22:18:41.352Z,86.63
2023-01-09T22:21:11.945Z,87.07
2023-01-09T22:23:42.379Z,86.86
2023-01-09T22:26:15.504Z,86.84
2023-01-09T22:28:50.054Z,87.02
2023-01-09T22:31:25.235Z,86.75
2023-01-09T22:33:57.788Z,86.95
2023-01-09T22:36:31.182Z,86.67
2023-01-09T22:39:03.087Z,86.46
2023-01-09T22:41:33.775Z,86.54
2023-01-09T22:44:06.946Z,86.70
2023-01-09T22:46:37.440Z,87.36
2023-01-09T22:49:08.169Z,86.74
2023-01-09T22:51:38.530Z,86.27
2023-01-09T22:54:09.219Z,86.10
2023-01-09T22:56:39.571Z,85.96
2023-01-09T22:59:12.700Z,86.93
2023-01-09T23:01:43.037Z,86.95
2023-01-09T23:04:16.741Z,87.02
2023-01-09T23:06:47.336Z,87.07
2023-01-09T23:09:17.686Z,87.44
2023-01-09T23:12:11.995Z,87.46
2023-01-09T23:14:44.865Z,87.48
2023-01-09T23:17:15.217Z,87.44
2023-01-09T23:19:45.487Z,86.99
2023-01-09T23:22:15.871Z,86.19
2023-01-09T23:24:46.299Z,86.40
2023-01-09T23:27:16.655Z,86.50
2023-01-09T23:29:49.567Z,86.25
2023-01-09T23:32:19.850Z,86.50
2023-01-09T23:34:50.189Z,86.29
2023-01-09T23:37:20.479Z,86.35
2023-01-09T23:39:50.770Z,86.36
2023-01-09T23:42:33.490Z,86.19
2023-01-09T23:45:07.318Z,86.16
2023-01-09T23:47:37.612Z,86.22
2023-01-09T23:50:09.228Z,86.07
2023-01-09T23:52:39.607Z,85.52
2023-01-09T23:55:11.197Z,85.26
2023-01-09T23:57:41.606Z,84.46
